ADDS METAR Data INFO
IDs: Format: Raw Decoded Include TAF

Data at: 0342 UTC 20 Feb 2018

KCTB 200256Z AUTO 25003KT 10SM CLR M22/M25 A2994 RMK AO2 SLP240 T12221250 57002
KCTB 200156Z AUTO 25004KT 10SM CLR M22/M24 A2994 RMK AO2 SLP242 T12171239
KCTB 200056Z AUTO 00000KT 10SM FEW110 M20/M23 A2994 RMK AO2 SLP238 T12001228
KCTB 192356Z AUTO 00000KT 10SM FEW100 M19/M22 A2995 RMK AO2 SLP235 T11891222 11183 21200 55001
KCTB 192256Z AUTO 23003KT 10SM CLR M19/M22 A2994 RMK AO2 SLP233 T11891217
KCTB 192156Z AUTO 24005KT 10SM FEW038 BKN048 OVC060 M18/M22 A2994 RMK AO2 SLP235 T11831217
KCTB 192135Z AUTO 24005KT 6SM HZ OVC033 M18/M22 A2994 RMK AO2 T11831217
KCTB 192056Z AUTO 25005KT 5SM HZ BKN029 OVC037 M19/M22 A2995 RMK AO2 SLP238 T11891217 56008
KCTB 192051Z AUTO 25004KT 5SM HZ BKN029 OVC037 M19/M22 A2995 RMK AO2
KCTB 191956Z AUTO 28004KT 10SM FEW046 M19/M22 A2997 RMK AO2 SLP247 T11891217
KCTB 191904Z AUTO 26006KT 7SM SCT028 M19/M22 A2998 RMK AO2 T11941222
KCTB 191856Z AUTO 25006KT 5SM BR BKN026 M20/M22 A2998 RMK AO2 SLP251 T12001222
KCTB 191812Z AUTO 25004KT 4SM BR BKN029 OVC036 M20/M22 A2998 RMK AO2 T12001222
KCTB 191756Z AUTO 28005KT 3SM BR BKN036 OVC043 M20/M22 A2999 RMK AO2 SNE20 SLP256 P0000 60000 T12001222 11200 21233 56003
KCTB 191731Z AUTO 27004KT 3SM BR BKN036 OVC045 M21/M23 A2999 RMK AO2 SNE20 P0000 T12061228
KCTB 191656Z AUTO 24003KT 2SM -SN BR BKN033 OVC043 M21/M23 A2999 RMK AO2 SNB01 SLP260 P0000 T12111228
KCTB 191650Z AUTO 26003KT 2SM -SN BR BKN030 OVC040 M21/M23 A2999 RMK AO2 SNB01 P0000
KCTB 191628Z AUTO 29003KT 1 1/2SM -SN BR BKN028 OVC034 M21/M23 A2999 RMK AO2 SNB01 P0000 T12111233
KCTB 191611Z AUTO 26003KT 1 3/4SM -SN BR BKN035 OVC047 M22/M24 A2999 RMK AO2 SNB01 P0000 T12171239
KCTB 191556Z AUTO 31004KT 8SM BKN045 OVC060 M22/M24 A2999 RMK AO2 SLP260 T12171239
KCTB 191518Z AUTO 30003KT 7SM SCT024 BKN080 OVC100 M22/M24 A3000 RMK AO2 T12221244
KCTB 191456Z AUTO 28003KT 4SM BR OVC028 M23/M24 A3000 RMK AO2 SLP268 T12281244 55000
KCTB 191356Z AUTO 32003KT 5SM BR OVC046 M23/M25 A2999 RMK AO2 SLP262 T12281250
KCTB 191256Z AUTO 32004KT 8SM OVC050 M22/M24 A3000 RMK AO2 SLP261 T12221239
KCTB 191156Z AUTO 29004KT 5SM BR BKN043 OVC080 M22/M24 A3000 RMK AO2 SLP254 60000 T12171239 11217 21233 50001
KCTB 191128Z AUTO 32004KT 3SM BR OVC031 M22/M24 A3000 RMK AO2 T12171239
KCTB 191101Z AUTO 30003KT 2 1/2SM BR OVC029 M22/M24 A3000 RMK AO2 T12171239
KCTB 191056Z AUTO 31004KT 3SM BR OVC033 M22/M24 A3000 RMK AO2 SNE35 SLP253 P0000 T12171239
KCTB 190956Z AUTO 34006KT 4SM -SN BR BKN048 OVC070 M22/M24 A3000 RMK AO2 SNB44 SLP253 P0000 T12221244
KCTB 190856Z AUTO 32003KT 5SM BR BKN035 OVC100 M23/M25 A3000 RMK AO2 SLP253 T12281250 58006
KCTB 190756Z AUTO 33005KT 5SM BR OVC042 M23/M26 A3000 RMK AO2 SLP256 T12331256
KCTB 190656Z AUTO 32005KT 4SM HZ OVC055 M23/M26 A3002 RMK AO2 SLP258 T12281256 411561256
KCTB 190556Z AUTO 33006KT 10SM BKN050 OVC065 M23/M26 A3002 RMK AO2 SLP259 T12331261 11189 21256 51006
KCTB 190456Z AUTO 31006KT 10SM FEW022 OVC100 M24/M27 A3002 RMK AO2 SLP260 T12441272
KCTB 190454Z AUTO 30007KT 10SM SCT022 OVC100 M24/M27 A3002 RMK AO2
KCTB 190356Z AUTO 30010KT 6SM BR FEW019 OVC025 M23/M26 A3000 RMK AO2 SLP254 T12331256
KCTB 190339Z AUTO 30008KT 5SM BR FEW017 BKN025 M24/M27 A3000 RMK AO2 T12441267
KCTB 190256Z AUTO 31010KT 10SM CLR M26/M27 A3000 RMK AO2 SLP260 T12561272 50008
KCTB 190156Z AUTO 32011KT 10SM CLR M23/M25 A3000 RMK AO2 SLP256 T12331250
KCTB 190056Z AUTO 34009KT 10SM CLR M22/M24 A2999 RMK AO2 SLP249 T12171239
KCTB 190044Z AUTO 34007KT 10SM SCT027 M21/M23 A2999 RMK AO2 T12061233
KCTB 190006Z AUTO 35008KT 4SM HZ OVC023 M19/M22 A2998 RMK AO2 T11891217
KCTB 182356Z AUTO 34008KT 2 1/2SM BR OVC023 M19/M21 A2998 RMK AO2 SLP238 60000 T11891211 11161 21189 51009
KCTB 182349Z AUTO 35007KT 3SM HZ BKN025 OVC034 M18/M21 A2998 RMK AO2 T11831211
KCTB 182256Z AUTO 35011KT 10SM BKN049 M18/M22 A2997 RMK AO2 SLP234 T11781217
KCTB 182205Z AUTO 36016KT 4SM HZ FEW030 BKN038 OVC044 M18/M21 A2996 RMK AO2 T11781211
KCTB 182156Z AUTO 36017KT 2 1/2SM HZ BKN034 OVC044 M18/M21 A2995 RMK AO2 SNE55 SLP229 P0000 T11781211
KCTB 182147Z AUTO 36019KT 2SM -SN FEW026 BKN032 OVC042 M18/M21 A2995 RMK AO2 P0000 T11781211
KCTB 182125Z AUTO 35018KT 1 1/4SM -SN BKN020 OVC029 M18/M21 A2995 RMK AO2 P0000 T11781206
KCTB 182108Z AUTO 35018KT 3/4SM -SN BKN018 OVC025 M18/M21 A2995 RMK AO2 P0000 T11781206
KCTB 182056Z AUTO 36018KT 1 1/4SM -SN BKN023 OVC030 M17/M21 A2995 RMK AO2 SLP224 P0000 60000 T11721206 53004
KCTB 182044Z AUTO 36019KT 1SM -SN BKN027 OVC033 M17/M21 A2995 RMK AO2 P0000 T11721206
KCTB 182029Z AUTO 35019KT 1 1/2SM -SN BKN030 OVC036 M17/M20 A2994 RMK AO2 P0000 T11721200
KCTB 182008Z AUTO 36016KT 1 1/2SM -SN BKN027 OVC033 M17/M21 A2994 RMK AO2 P0000 T11721206
KCTB 181956Z AUTO 35018KT 2SM -SN BKN023 OVC030 M17/M20 A2994 RMK AO2 SNB09 SLP221 P0000 T11721200
KCTB 181856Z AUTO 01017KT 1 1/4SM HZ BKN024 OVC037 M17/M19 A2994 RMK AO2 SNE53 SLP218 P0000 T11671194
KCTB 181852Z AUTO 01018KT 1 1/4SM -SN BKN022 BKN029 OVC037 M17/M19 A2993 RMK AO2 P0000
KCTB 181811Z AUTO 01019KT 1/2SM -SN FZFG BKN015 OVC025 M17/M19 A2992 RMK AO2 P0000 T11671189
KCTB 181756Z AUTO 01019KT 1/2SM -SN FZFG BKN013 OVC027 M16/M18 A2992 RMK AO2 SLP209 P0000 60000 T11611183 11161 21178 53009
KCTB 181749Z AUTO 01018KT 1/2SM -SN FZFG BKN013 OVC027 M16/M18 A2991 RMK AO2 P0000 T11611183
KCTB 181738Z AUTO 36015KT 1/2SM -SN FZFG BKN015 BKN024 OVC030 M16/M18 A2991 RMK AO2 P0000 T11611183
KCTB 181711Z AUTO 35016KT 1/2SM -SN FZFG VV013 M16/M18 A2990 RMK AO2 P0000 T11611183
KCTB 181656Z AUTO 35011KT 3/4SM -SN BR VV017 M16/M18 A2990 RMK AO2 SLP201 P0000 T11611183
KCTB 181651Z AUTO 35012KT 3/4SM -SN BR BKN020 OVC030 M16/M18 A2990 RMK AO2 P0000
KCTB 181638Z AUTO 35012KT 1 1/2SM -SN BR BKN028 OVC038 M16/M18 A2989 RMK AO2 P0000 T11611183
KCTB 181610Z AUTO 33011KT 2SM -SN BR SCT046 BKN060 OVC075 M17/M19 A2988 RMK AO2 P0000 T11671189
KCTB 181556Z AUTO 32009KT 5SM -SN BR FEW035 OVC070 M17/M19 A2988 RMK AO2 SNE10B48 SLP198 P0000 T11671189